Time;durP1;ratioP1;P1;durP2;ratioP2;P2;SDS_P1;SDS_P2;PMS_P1;PMS_P2;Temp;Humidity;BMP_temperature;BMP_pressure;BME280_temperature;BME280_humidity;BME280_pressure;Samples;Min_cycle;Max_cycle;Signal;HPM_P1;HPM_P2
2023/02/17 00:00:10;;;;;;;35.67;31.00;;;6.40;99.90;;;;;;5019575;28;20640;-48
2023/02/17 00:02:36;;;;;;;35.03;31.00;;;6.40;99.90;;;;;;5019720;28;20175;-45
2023/02/17 00:05:01;;;;;;;35.57;30.10;;;6.40;99.90;;;;;;5019600;28;20785;-43
2023/02/17 00:07:30;;;;;;;34.13;29.40;;;6.40;99.90;;;;;;5019863;28;20564;-44
2023/02/17 00:09:56;;;;;;;34.67;30.43;;;6.40;99.90;;;;;;5018804;28;20179;-45
2023/02/17 00:12:22;;;;;;;36.10;30.20;;;6.40;99.90;;;;;;5019729;28;20465;-51
2023/02/17 00:14:47;;;;;;;35.33;30.83;;;6.50;99.90;;;;;;5019434;28;20777;-50
2023/02/17 00:17:13;;;;;;;37.83;30.73;;;6.40;99.90;;;;;;5019656;28;20179;-43
2023/02/17 00:19:39;;;;;;;31.97;28.53;;;6.50;99.90;;;;;;5018168;28;20182;-46
2023/02/17 00:22:04;;;;;;;32.70;29.10;;;6.60;99.90;;;;;;5019830;28;20268;-47
2023/02/17 00:24:31;;;;;;;32.33;28.77;;;6.60;99.90;;;;;;5019423;28;20272;-45
2023/02/17 00:26:57;;;;;;;34.77;28.90;;;6.60;99.90;;;;;;5019194;28;21036;-45
2023/02/17 00:29:23;;;;;;;34.17;29.60;;;6.60;99.90;;;;;;5019416;28;20483;-49
2023/02/17 00:31:50;;;;;;;32.90;29.50;;;6.70;99.90;;;;;;5019398;28;20420;-47
2023/02/17 00:34:16;;;;;;;33.45;29.88;;;6.70;99.90;;;;;;5019326;28;20187;-46
2023/02/17 00:36:42;;;;;;;35.10;29.53;;;6.80;99.90;;;;;;5019750;28;20205;-47
2023/02/17 00:39:07;;;;;;;33.10;29.53;;;6.70;99.90;;;;;;5018768;28;20290;-45
2023/02/17 00:41:33;;;;;;;32.20;28.83;;;6.80;99.90;;;;;;5019380;28;20195;-43
2023/02/17 00:43:59;;;;;;;35.10;29.83;;;6.70;99.90;;;;;;5019467;28;20191;-45
2023/02/17 00:46:25;;;;;;;35.00;30.10;;;6.70;99.90;;;;;;5019322;28;20942;-45
2023/02/17 00:48:51;;;;;;;32.45;29.08;;;6.60;99.90;;;;;;5019218;28;20228;-47
2023/02/17 00:51:18;;;;;;;34.00;29.30;;;6.70;99.90;;;;;;5018786;28;20190;-45
2023/02/17 00:53:44;;;;;;;37.43;30.43;;;6.60;99.90;;;;;;5019055;28;20183;-45
2023/02/17 00:56:10;;;;;;;35.30;29.60;;;6.60;99.90;;;;;;5019721;28;20420;-45
2023/02/17 00:58:36;;;;;;;35.50;30.40;;;6.70;99.90;;;;;;5019289;28;20437;-45
2023/02/17 01:01:02;;;;;;;36.57;29.00;;;6.60;99.90;;;;;;5019180;28;20431;-45
2023/02/17 01:03:28;;;;;;;34.60;29.17;;;6.70;99.90;;;;;;5019081;28;20618;-45
2023/02/17 01:05:55;;;;;;;31.00;27.70;;;6.70;99.90;;;;;;5020366;28;20194;-49
2023/02/17 01:08:21;;;;;;;33.00;29.10;;;6.70;99.90;;;;;;5021395;28;21013;-45
2023/02/17 01:10:48;;;;;;;33.90;29.10;;;6.70;99.90;;;;;;5022900;28;20424;-43
2023/02/17 01:13:15;;;;;;;36.47;30.00;;;6.80;99.90;;;;;;5022926;28;20527;-44
2023/02/17 01:15:47;;;;;;;34.90;30.37;;;6.70;99.90;;;;;;5022604;28;20445;-45
2023/02/17 01:18:13;;;;;;;35.77;30.60;;;6.80;99.90;;;;;;5022275;28;20500;-45
2023/02/17 01:20:40;;;;;;;32.47;28.97;;;6.80;99.90;;;;;;5022604;28;20436;-47
2023/02/17 01:23:07;;;;;;;33.77;30.17;;;6.80;99.90;;;;;;5022663;28;20826;-49
2023/02/17 01:25:45;;;;;;;33.67;29.83;;;6.80;99.90;;;;;;5022561;28;20451;-45
2023/02/17 01:28:15;;;;;;;34.77;30.00;;;6.80;99.90;;;;;;5020734;28;20591;-46
2023/02/17 01:30:41;;;;;;;38.23;29.77;;;6.80;99.90;;;;;;5022712;28;20503;-45
2023/02/17 01:33:06;;;;;;;34.93;30.20;;;6.80;99.90;;;;;;5022487;28;20424;-43
2023/02/17 01:35:33;;;;;;;36.40;29.40;;;6.80;99.90;;;;;;5021389;28;20182;-45
2023/02/17 01:37:59;;;;;;;32.90;29.30;;;6.80;99.90;;;;;;5022588;28;20186;-47
2023/02/17 01:40:25;;;;;;;33.63;28.60;;;6.80;99.90;;;;;;5021059;28;20529;-45
2023/02/17 01:42:50;;;;;;;36.17;30.43;;;6.80;99.90;;;;;;5022031;28;20417;-46
2023/02/17 01:45:16;;;;;;;34.87;29.60;;;6.90;99.90;;;;;;5021856;28;20183;-46
2023/02/17 01:48:05;;;;;;;33.67;28.77;;;6.90;99.90;;;;;;5022020;28;20206;-48
2023/02/17 01:50:35;;;;;;;36.17;29.40;;;6.90;99.90;;;;;;5022177;28;20257;-46
2023/02/17 01:53:04;;;;;;;32.73;29.17;;;6.90;99.90;;;;;;5022292;28;20449;-45
2023/02/17 01:55:32;;;;;;;32.27;28.17;;;6.80;99.90;;;;;;5021716;28;20453;-49
2023/02/17 01:58:00;;;;;;;34.47;29.67;;;6.90;99.90;;;;;;5021777;28;20561;-47
2023/02/17 02:00:28;;;;;;;33.17;29.50;;;6.90;99.90;;;;;;5021740;28;20417;-46
2023/02/17 02:02:54;;;;;;;33.60;28.60;;;6.90;99.90;;;;;;5021856;28;20738;-48
2023/02/17 02:05:21;;;;;;;36.43;31.30;;;6.80;99.90;;;;;;5021490;28;20720;-48
2023/02/17 02:07:48;;;;;;;44.30;32.33;;;6.80;99.90;;;;;;5020946;28;21366;-50
2023/02/17 02:10:14;;;;;;;43.60;31.85;;;6.80;99.90;;;;;;5021391;28;20424;-46
2023/02/17 02:12:41;;;;;;;37.90;30.73;;;6.70;99.90;;;;;;5020069;28;20229;-44
2023/02/17 02:15:30;;;;;;;37.60;31.38;;;6.70;99.90;;;;;;5021437;28;20901;-46
2023/02/17 02:18:41;;;;;;;37.47;32.22;;;6.60;99.90;;;;;;5020909;28;20197;-49
2023/02/17 02:21:17;;;;;;;37.43;32.83;;;6.70;99.90;;;;;;5008302;28;20202;-46
2023/02/17 02:24:02;;;;;;;40.90;31.60;;;6.60;99.90;;;;;;5021955;28;20464;-47
2023/02/17 02:26:34;;;;;;;39.20;33.40;;;6.60;99.90;;;;;;5021094;28;20429;-46
2023/02/17 02:29:38;;;;;;;40.23;31.97;;;6.60;99.90;;;;;;5020500;28;20465;-47
2023/02/17 02:32:41;;;;;;;39.10;32.88;;;6.50;99.90;;;;;;5021444;28;20427;-46
2023/02/17 02:35:22;;;;;;;39.83;33.65;;;6.60;99.90;;;;;;5021108;28;20551;-47
2023/02/17 02:37:54;;;;;;;38.50;31.98;;;6.50;99.90;;;;;;5021217;28;20190;-44
2023/02/17 02:40:25;;;;;;;39.85;32.50;;;6.50;99.90;;;;;;5021244;28;20203;-45
2023/02/17 02:42:53;;;;;;;40.50;32.15;;;6.50;99.90;;;;;;5020549;28;20186;-44
2023/02/17 02:45:19;;;;;;;39.42;31.92;;;6.50;99.90;;;;;;5021134;28;20194;-44
2023/02/17 02:47:55;;;;;;;39.50;33.10;;;6.50;99.90;;;;;;5020964;28;20557;-50
2023/02/17 02:50:40;;;;;;;42.85;33.42;;;6.50;99.90;;;;;;5021265;28;20907;-46
2023/02/17 02:53:31;;;;;;;42.78;32.05;;;6.50;99.90;;;;;;5020949;28;20254;-47
2023/02/17 02:56:24;;;;;;;39.53;32.05;;;6.50;99.90;;;;;;5019731;28;20181;-45
2023/02/17 02:58:58;;;;;;;40.70;31.37;;;6.50;99.90;;;;;;5020888;28;20231;-47
2023/02/17 03:01:36;;;;;;;40.35;31.33;;;6.60;99.90;;;;;;5020437;28;20425;-46
2023/02/17 03:04:14;;;;;;;34.85;30.65;;;6.60;99.90;;;;;;5020646;28;20197;-44
2023/02/17 03:07:00;;;;;;;39.83;31.13;;;6.60;99.90;;;;;;5020503;28;20495;-46
2023/02/17 03:09:27;;;;;;;36.25;31.17;;;6.60;99.90;;;;;;5021277;28;20193;-43
2023/02/17 03:11:55;;;;;;;36.08;30.05;;;6.60;99.90;;;;;;5020224;28;20235;-47
2023/02/17 03:14:22;;;;;;;35.13;31.10;;;6.70;99.90;;;;;;5021065;28;20199;-48
2023/02/17 03:16:49;;;;;;;33.55;28.77;;;6.70;99.90;;;;;;5020046;28;20622;-44
2023/02/17 03:19:16;;;;;;;34.97;29.20;;;6.80;99.90;;;;;;5020568;28;20175;-45
2023/02/17 03:21:45;;;;;;;35.30;30.20;;;6.80;99.90;;;;;;5020521;28;20432;-44
2023/02/17 03:24:10;;;;;;;36.33;30.13;;;6.80;99.90;;;;;;5020533;28;20409;-44
2023/02/17 03:26:36;;;;;;;34.20;29.67;;;6.90;99.90;;;;;;5017692;28;20769;-47
2023/02/17 03:29:01;;;;;;;35.27;30.40;;;6.90;99.90;;;;;;5019506;28;20206;-48
2023/02/17 03:31:27;;;;;;;35.67;28.60;;;7.00;99.90;;;;;;5018434;28;20450;-45
2023/02/17 03:33:53;;;;;;;33.60;28.80;;;7.00;99.90;;;;;;5020613;28;20186;-45
2023/02/17 03:36:18;;;;;;;31.37;27.70;;;7.00;99.90;;;;;;5019786;28;20194;-46
2023/02/17 03:38:44;;;;;;;31.10;27.50;;;7.10;99.90;;;;;;5020290;28;20221;-48
2023/02/17 03:41:10;;;;;;;30.10;26.80;;;7.10;99.90;;;;;;5020090;28;20197;-44
2023/02/17 03:43:35;;;;;;;29.83;26.50;;;7.20;99.90;;;;;;5020024;28;20741;-45
2023/02/17 03:46:01;;;;;;;29.90;26.60;;;7.30;99.90;;;;;;5020024;28;20210;-47
2023/02/17 03:48:27;;;;;;;29.83;26.50;;;7.40;99.90;;;;;;5020142;28;20202;-45
2023/02/17 03:50:52;;;;;;;26.00;23.20;;;7.40;99.90;;;;;;5020129;28;20739;-44
2023/02/17 03:53:18;;;;;;;26.60;23.80;;;7.50;99.90;;;;;;5019825;28;20728;-48
2023/02/17 03:55:43;;;;;;;22.43;20.43;;;7.60;99.90;;;;;;5019338;28;20183;-45
2023/02/17 03:58:09;;;;;;;20.77;18.97;;;8.00;99.90;;;;;;5018853;28;20240;-48
2023/02/17 04:00:35;;;;;;;20.87;18.80;;;8.30;99.90;;;;;;5019686;28;20649;-43
2023/02/17 04:03:00;;;;;;;20.27;18.57;;;8.60;99.90;;;;;;5019970;28;20195;-44
2023/02/17 04:05:26;;;;;;;19.93;18.33;;;8.90;99.90;;;;;;5019562;28;20191;-48
2023/02/17 04:07:52;;;;;;;20.10;18.47;;;9.20;99.90;;;;;;5019806;28;20237;-44
2023/02/17 04:10:17;;;;;;;20.50;18.70;;;9.40;99.90;;;;;;5019609;28;20636;-46
2023/02/17 04:12:43;;;;;;;19.97;18.27;;;9.50;99.90;;;;;;5019399;28;20339;-46
2023/02/17 04:15:09;;;;;;;19.47;17.87;;;9.60;99.90;;;;;;5019292;28;20184;-44
2023/02/17 04:17:37;;;;;;;20.03;18.17;;;9.80;99.90;;;;;;5019477;28;20187;-49
2023/02/17 04:20:05;;;;;;;19.57;17.97;;;9.70;99.90;;;;;;5019107;28;20658;-45
2023/02/17 04:22:31;;;;;;;18.30;16.83;;;9.80;99.90;;;;;;5019605;28;20814;-45
2023/02/17 04:24:56;;;;;;;20.50;18.70;;;9.90;99.90;;;;;;5019452;28;20411;-44
2023/02/17 04:27:22;;;;;;;20.63;18.83;;;9.80;99.90;;;;;;5018072;28;20239;-46
2023/02/17 04:29:47;;;;;;;20.00;18.20;;;9.70;99.90;;;;;;5019546;28;20174;-43
2023/02/17 04:32:13;;;;;;;19.43;17.73;;;9.70;99.90;;;;;;5019691;28;20188;-44
2023/02/17 04:34:39;;;;;;;22.07;20.07;;;9.60;99.90;;;;;;5019587;28;20195;-44
2023/02/17 04:37:05;;;;;;;21.33;19.30;;;9.50;99.90;;;;;;5019266;28;20193;-47
2023/02/17 04:39:30;;;;;;;20.70;19.00;;;9.50;99.90;;;;;;5020348;28;20595;-44
2023/02/17 04:41:56;;;;;;;21.00;19.20;;;9.40;99.90;;;;;;5021910;28;20429;-44
2023/02/17 04:44:22;;;;;;;21.73;19.70;;;9.30;99.90;;;;;;5022887;28;20451;-46
2023/02/17 04:46:47;;;;;;;22.43;20.53;;;9.40;99.90;;;;;;5023804;28;20182;-44
2023/02/17 04:49:13;;;;;;;19.77;18.07;;;9.40;99.90;;;;;;5023185;28;20394;-45
2023/02/17 04:51:38;;;;;;;20.57;18.87;;;9.30;99.90;;;;;;5023317;28;20180;-43
2023/02/17 04:54:04;;;;;;;20.50;18.77;;;9.40;99.90;;;;;;5021789;28;20221;-45
2023/02/17 04:56:30;;;;;;;20.13;18.30;;;9.40;99.90;;;;;;5023268;28;20670;-45
2023/02/17 04:58:55;;;;;;;20.20;18.40;;;9.50;99.90;;;;;;5022689;28;20215;-46
2023/02/17 05:01:21;;;;;;;20.40;18.70;;;9.60;99.90;;;;;;5022991;28;20581;-45
2023/02/17 05:03:46;;;;;;;21.20;19.30;;;9.60;99.90;;;;;;5023543;28;20187;-46
2023/02/17 05:06:12;;;;;;;21.17;19.17;;;9.50;99.90;;;;;;5022682;28;20447;-47
2023/02/17 05:08:38;;;;;;;21.23;19.53;;;9.60;99.90;;;;;;5021844;28;20221;-46
2023/02/17 05:11:03;;;;;;;20.77;18.83;;;9.60;99.90;;;;;;5024049;28;20256;-46
2023/02/17 05:13:29;;;;;;;20.30;18.60;;;9.60;99.90;;;;;;5023192;28;20188;-47
2023/02/17 05:15:54;;;;;;;20.73;18.93;;;9.50;99.90;;;;;;5023090;28;20667;-49
2023/02/17 05:18:20;;;;;;;19.90;18.10;;;9.40;99.90;;;;;;5023637;28;20193;-45
2023/02/17 05:20:46;;;;;;;21.00;19.30;;;9.50;99.90;;;;;;5023760;28;20196;-49
2023/02/17 05:23:11;;;;;;;22.00;20.10;;;9.50;99.90;;;;;;5023671;28;20180;-46
2023/02/17 05:25:37;;;;;;;21.50;19.70;;;9.40;99.90;;;;;;5022928;28;20242;-45
2023/02/17 05:28:03;;;;;;;22.07;20.27;;;9.40;99.90;;;;;;5022890;28;20210;-48
2023/02/17 05:30:28;;;;;;;22.73;20.90;;;9.30;99.90;;;;;;5022623;28;20182;-45
2023/02/17 05:32:55;;;;;;;23.13;21.23;;;9.20;99.90;;;;;;5023327;28;20175;-45
2023/02/17 05:35:20;;;;;;;21.20;19.50;;;9.10;99.90;;;;;;5023398;28;20285;-47
2023/02/17 05:37:46;;;;;;;21.93;20.13;;;9.10;99.90;;;;;;5022948;28;20428;-45
2023/02/17 05:40:12;;;;;;;22.37;20.67;;;9.10;99.90;;;;;;5022599;28;20184;-44
2023/02/17 05:42:37;;;;;;;22.80;21.00;;;9.10;99.90;;;;;;5022452;28;20211;-43
2023/02/17 05:45:04;;;;;;;21.60;19.90;;;9.10;99.90;;;;;;5022431;28;20432;-44
2023/02/17 05:47:29;;;;;;;22.73;20.87;;;9.10;99.90;;;;;;5022275;28;20740;-44
2023/02/17 05:49:55;;;;;;;22.40;20.60;;;9.00;99.90;;;;;;5022675;28;20835;-46
2023/02/17 05:52:20;;;;;;;23.03;20.87;;;9.00;99.90;;;;;;5019942;28;20204;-45
2023/02/17 05:54:46;;;;;;;21.03;19.17;;;9.10;99.90;;;;;;5019283;28;20715;-43
2023/02/17 05:57:11;;;;;;;22.33;20.33;;;9.00;99.90;;;;;;5021273;28;20187;-44
2023/02/17 05:59:37;;;;;;;19.27;17.63;;;9.10;99.90;;;;;;5022097;28;20717;-47
2023/02/17 06:02:03;;;;;;;20.87;19.07;;;9.10;99.90;;;;;;5021006;28;20196;-42
2023/02/17 06:04:28;;;;;;;20.37;18.70;;;9.10;99.90;;;;;;5021961;28;20309;-43
2023/02/17 06:06:54;;;;;;;20.07;18.37;;;9.10;99.90;;;;;;5022026;28;20609;-45
2023/02/17 06:09:20;;;;;;;21.00;19.20;;;9.10;99.90;;;;;;5021733;28;20208;-46
2023/02/17 06:11:45;;;;;;;20.03;18.53;;;9.20;99.90;;;;;;5021670;28;20234;-44
2023/02/17 06:14:11;;;;;;;20.10;18.50;;;9.20;99.90;;;;;;5021708;28;20183;-42
2023/02/17 06:16:36;;;;;;;20.97;19.17;;;9.30;99.90;;;;;;5021938;28;20268;-46
2023/02/17 06:19:04;;;;;;;19.03;17.53;;;9.40;99.90;;;;;;5021333;28;20186;-43
2023/02/17 06:21:30;;;;;;;19.60;18.10;;;9.40;99.90;;;;;;5021498;28;20272;-48
2023/02/17 06:23:55;;;;;;;19.60;18.10;;;9.50;99.90;;;;;;5020918;28;20470;-48
2023/02/17 06:26:21;;;;;;;20.27;18.67;;;9.50;99.90;;;;;;5021246;28;20508;-45
2023/02/17 06:28:47;;;;;;;19.10;17.47;;;9.50;99.90;;;;;;5021707;28;20216;-42
2023/02/17 06:31:12;;;;;;;19.33;17.73;;;9.50;99.90;;;;;;5021480;28;20482;-43
2023/02/17 06:33:38;;;;;;;18.10;16.60;;;9.70;99.90;;;;;;5020921;28;20712;-46
2023/02/17 06:36:04;;;;;;;17.73;16.43;;;9.70;99.90;;;;;;5021716;28;20195;-45
2023/02/17 06:38:29;;;;;;;18.63;17.23;;;9.70;99.90;;;;;;5020920;28;20189;-43
2023/02/17 06:40:55;;;;;;;18.60;17.17;;;9.80;99.90;;;;;;5021232;28;20422;-44
2023/02/17 06:43:21;;;;;;;18.40;17.00;;;9.80;99.90;;;;;;5021061;28;20188;-43
2023/02/17 06:45:46;;;;;;;20.10;18.50;;;9.80;99.90;;;;;;5021441;28;20192;-47
2023/02/17 06:48:12;;;;;;;18.63;17.13;;;9.90;99.90;;;;;;5020805;28;20209;-44
2023/02/17 06:50:38;;;;;;;17.70;16.40;;;9.90;99.90;;;;;;5021042;28;20682;-43
2023/02/17 06:53:03;;;;;;;19.00;17.50;;;10.00;99.90;;;;;;5019696;28;20252;-44
2023/02/17 06:55:29;;;;;;;19.40;18.00;;;10.00;99.90;;;;;;5016966;28;20445;-43
2023/02/17 06:57:55;;;;;;;19.63;18.00;;;10.10;99.90;;;;;;5019402;28;20587;-44
2023/02/17 07:00:21;;;;;;;18.70;17.20;;;10.10;99.90;;;;;;5019764;28;20190;-43
2023/02/17 07:02:47;;;;;;;18.77;17.33;;;10.10;99.90;;;;;;5019773;28;20188;-45
2023/02/17 07:05:12;;;;;;;18.40;17.10;;;10.20;99.90;;;;;;5020676;28;20482;-43
2023/02/17 07:07:38;;;;;;;17.90;16.60;;;10.10;99.90;;;;;;5020856;28;20296;-43
2023/02/17 07:10:04;;;;;;;18.63;17.10;;;10.10;99.90;;;;;;5020957;28;20190;-45
2023/02/17 07:12:30;;;;;;;19.27;17.77;;;10.20;99.90;;;;;;5021019;28;20232;-43
2023/02/17 07:14:55;;;;;;;17.70;16.40;;;10.30;99.90;;;;;;5020806;28;20433;-44
2023/02/17 07:17:21;;;;;;;18.30;17.00;;;10.30;99.90;;;;;;5020516;28;20191;-44
2023/02/17 07:19:47;;;;;;;18.03;16.63;;;10.30;99.90;;;;;;5020630;28;20186;-44
2023/02/17 07:22:12;;;;;;;17.87;16.57;;;10.30;99.90;;;;;;5019727;28;20672;-44
2023/02/17 07:24:38;;;;;;;18.10;16.60;;;10.40;99.90;;;;;;5017288;28;20193;-43
2023/02/17 07:27:05;;;;;;;18.13;16.90;;;10.40;99.90;;;;;;5020069;28;20182;-47
2023/02/17 07:29:31;;;;;;;17.23;15.90;;;10.40;99.90;;;;;;5020675;28;20198;-43
2023/02/17 07:31:57;;;;;;;17.47;16.17;;;10.50;99.90;;;;;;5020296;28;20485;-46
2023/02/17 07:34:22;;;;;;;18.10;16.70;;;10.50;99.90;;;;;;5019019;28;20565;-45
2023/02/17 07:36:48;;;;;;;18.10;16.80;;;10.50;99.90;;;;;;5019969;28;20194;-45
2023/02/17 07:39:13;;;;;;;17.83;16.53;;;10.50;99.90;;;;;;5019992;28;20190;-45
2023/02/17 07:41:39;;;;;;;16.87;15.60;;;10.40;99.90;;;;;;5020427;28;20190;-46
2023/02/17 07:44:04;;;;;;;18.70;17.30;;;10.50;99.90;;;;;;5020056;28;20198;-46
2023/02/17 07:46:30;;;;;;;17.90;16.50;;;10.40;99.90;;;;;;5020431;28;20230;-46
2023/02/17 07:48:57;;;;;;;17.60;16.40;;;10.50;99.90;;;;;;5019981;28;20247;-44
2023/02/17 07:51:23;;;;;;;18.07;16.57;;;10.40;99.90;;;;;;5019554;28;20710;-51
2023/02/17 07:53:50;;;;;;;18.17;16.73;;;10.50;99.90;;;;;;5019716;28;20522;-43
2023/02/17 07:56:18;;;;;;;17.23;16.03;;;10.40;99.90;;;;;;5019393;28;20470;-43
2023/02/17 07:58:44;;;;;;;17.67;16.47;;;10.50;99.90;;;;;;5019491;28;20435;-44
2023/02/17 08:01:19;;;;;;;18.47;17.23;;;10.60;99.90;;;;;;5020440;28;20545;-43
2023/02/17 08:03:46;;;;;;;18.87;17.47;;;10.50;99.90;;;;;;5019441;28;20424;-45
2023/02/17 08:06:13;;;;;;;15.93;14.83;;;10.50;99.90;;;;;;5019372;28;20911;-48
2023/02/17 08:14:08;;;;;;;18.20;16.90;;;10.50;99.90;;;;;;5019767;28;20463;-45
2023/02/17 08:16:33;;;;;;;18.77;17.37;;;10.60;99.90;;;;;;5020005;28;20421;-44
2023/02/17 08:18:59;;;;;;;18.10;16.70;;;10.50;99.90;;;;;;5019207;28;20240;-45
2023/02/17 08:21:26;;;;;;;17.70;16.30;;;10.60;99.90;;;;;;5019739;28;20217;-45
2023/02/17 08:23:53;;;;;;;20.03;18.33;;;10.60;99.90;;;;;;5018050;28;20190;-44
2023/02/17 08:26:19;;;;;;;18.27;16.97;;;10.60;99.90;;;;;;5018916;28;20448;-46
2023/02/17 08:28:45;;;;;;;18.27;16.97;;;10.70;99.90;;;;;;5019346;28;20472;-44
2023/02/17 08:31:33;;;;;;;18.13;16.63;;;10.70;99.90;;;;;;5019284;28;20425;-46
2023/02/17 08:34:04;;;;;;;18.10;16.80;;;10.80;99.90;;;;;;5019308;28;20443;-44
2023/02/17 08:36:30;;;;;;;17.50;16.20;;;10.80;99.90;;;;;;5019513;28;20416;-45
2023/02/17 08:38:58;;;;;;;17.57;16.17;;;10.90;99.90;;;;;;5019612;28;20449;-45
2023/02/17 08:41:33;;;;;;;17.67;16.27;;;10.80;99.90;;;;;;5019565;28;20563;-45
2023/02/17 08:44:01;;;;;;;18.47;17.07;;;10.90;99.90;;;;;;5017802;28;20437;-44
2023/02/17 08:46:28;;;;;;;18.17;16.87;;;10.80;99.90;;;;;;5019104;28;20439;-45
2023/02/17 08:48:55;;;;;;;17.63;16.27;;;10.80;99.90;;;;;;5019257;28;20476;-45
2023/02/17 08:51:24;;;;;;;18.00;16.73;;;10.90;99.90;;;;;;5017765;28;20449;-49
2023/02/17 08:53:51;;;;;;;17.60;16.10;;;11.00;99.90;;;;;;5019371;28;20436;-46
2023/02/17 08:56:17;;;;;;;18.83;17.33;;;11.00;99.90;;;;;;5019151;28;20429;-44
2023/02/17 08:58:42;;;;;;;17.90;16.60;;;11.00;99.90;;;;;;5019006;28;20720;-48
2023/02/17 09:01:08;;;;;;;18.03;16.70;;;11.10;99.90;;;;;;5019609;28;20195;-45
2023/02/17 09:03:36;;;;;;;17.13;15.93;;;11.10;99.90;;;;;;5019120;28;20451;-46
2023/02/17 09:06:02;;;;;;;16.80;15.50;;;11.10;99.90;;;;;;5019104;28;20190;-49
2023/02/17 09:08:28;;;;;;;16.93;15.73;;;11.10;99.90;;;;;;5019236;28;21069;-46
2023/02/17 09:10:54;;;;;;;16.93;15.83;;;11.10;99.90;;;;;;5018988;28;20421;-44
2023/02/17 09:13:20;;;;;;;17.10;15.80;;;11.10;99.90;;;;;;5019100;28;20234;-43
2023/02/17 09:15:45;;;;;;;16.97;15.80;;;11.10;99.90;;;;;;5018856;28;20204;-44
2023/02/17 09:18:11;;;;;;;16.10;14.80;;;11.20;99.90;;;;;;5019261;28;20297;-45
2023/02/17 09:20:38;;;;;;;15.43;14.43;;;11.20;99.90;;;;;;5018531;28;20195;-46
2023/02/17 09:23:04;;;;;;;15.27;14.27;;;11.20;99.90;;;;;;5019341;28;20461;-45
2023/02/17 09:25:30;;;;;;;16.60;15.30;;;11.40;99.90;;;;;;5019468;28;20717;-45
2023/02/17 09:27:56;;;;;;;15.60;14.53;;;11.40;99.90;;;;;;5020402;28;20489;-47
2023/02/17 09:30:21;;;;;;;14.60;13.60;;;11.40;99.90;;;;;;5022443;28;20187;-48
2023/02/17 09:32:47;;;;;;;16.67;15.47;;;11.50;99.90;;;;;;5022995;28;20665;-50
2023/02/17 09:35:15;;;;;;;15.50;14.50;;;11.50;99.90;;;;;;5022271;28;20185;-44
2023/02/17 09:37:40;;;;;;;15.90;14.70;;;11.60;99.90;;;;;;5022469;28;20207;-44
2023/02/17 09:40:18;;;;;;;15.50;14.40;;;11.80;99.90;;;;;;5022388;28;20780;-46
2023/02/17 09:42:43;;;;;;;15.00;14.00;;;11.90;99.90;;;;;;5021246;28;20199;-48
2023/02/17 09:45:15;;;;;;;15.23;14.33;;;12.00;99.90;;;;;;5022409;28;21091;-49
2023/02/17 09:47:50;;;;;;;15.03;14.10;;;12.20;99.90;;;;;;5022244;28;20810;-46
2023/02/17 09:50:22;;;;;;;15.00;14.10;;;12.30;99.90;;;;;;5020510;28;21073;-47
2023/02/17 09:52:59;;;;;;;14.50;13.60;;;12.30;99.90;;;;;;5022076;28;20412;-45
2023/02/17 09:55:33;;;;;;;14.97;14.07;;;12.40;99.90;;;;;;5022122;28;20412;-45
2023/02/17 09:58:17;;;;;;;13.80;13.00;;;12.50;99.90;;;;;;5022260;28;20419;-45
2023/02/17 10:01:01;;;;;;;14.57;13.67;;;12.40;99.90;;;;;;5021936;28;20427;-47
2023/02/17 10:03:45;;;;;;;14.40;13.50;;;12.50;99.90;;;;;;5020206;28;20432;-45
2023/02/17 10:06:31;;;;;;;13.07;12.37;;;12.40;99.90;;;;;;5021779;28;20433;-44
2023/02/17 10:09:25;;;;;;;13.47;12.67;;;12.60;99.90;;;;;;5021983;28;20559;-48
2023/02/17 10:12:27;;;;;;;14.33;13.53;;;12.70;99.90;;;;;;5021559;28;20588;-45
2023/02/17 10:15:00;;;;;;;14.07;13.20;;;12.70;99.90;;;;;;5020722;28;20892;-46
2023/02/17 10:17:28;;;;;;;13.90;13.00;;;12.60;99.90;;;;;;5021889;28;20428;-51
2023/02/17 10:20:01;;;;;;;13.53;12.77;;;12.60;99.90;;;;;;5020735;28;20491;-45
2023/02/17 10:22:28;;;;;;;13.53;12.73;;;12.60;99.90;;;;;;5021408;28;20420;-44
2023/02/17 10:24:54;;;;;;;13.30;12.50;;;12.70;99.90;;;;;;5020919;28;20443;-43
2023/02/17 10:27:44;;;;;;;14.43;13.57;;;12.70;99.90;;;;;;5021727;28;20954;-45
2023/02/17 10:30:24;;;;;;;13.90;13.10;;;12.60;99.90;;;;;;5021878;28;20632;-44
2023/02/17 10:32:59;;;;;;;14.70;13.80;;;12.60;99.90;;;;;;5021393;28;20415;-44
2023/02/17 10:35:43;;;;;;;14.17;13.40;;;12.60;99.90;;;;;;5021687;28;20567;-44
2023/02/17 10:38:17;;;;;;;13.53;12.73;;;12.40;99.90;;;;;;5020828;28;20852;-45
2023/02/17 10:40:47;;;;;;;13.20;12.40;;;12.40;99.90;;;;;;5021566;28;20430;-45
2023/02/17 10:43:20;;;;;;;13.80;13.00;;;12.50;99.90;;;;;;5022047;28;20898;-44
2023/02/17 10:45:50;;;;;;;13.00;12.20;;;12.60;99.90;;;;;;5021148;28;20419;-45
2023/02/17 10:48:22;;;;;;;13.83;13.03;;;12.60;99.90;;;;;;5020189;28;20579;-45
2023/02/17 10:50:48;;;;;;;13.30;12.40;;;12.60;99.90;;;;;;5021130;28;20507;-47
2023/02/17 10:53:23;;;;;;;12.23;11.43;;;12.70;99.90;;;;;;5020874;28;20451;-47
2023/02/17 10:56:00;;;;;;;12.70;11.90;;;12.60;99.90;;;;;;5021187;28;20420;-42
2023/02/17 10:58:38;;;;;;;12.90;12.20;;;12.80;99.90;;;;;;5020850;28;20700;-47
2023/02/17 11:01:05;;;;;;;12.43;11.63;;;12.70;99.90;;;;;;5021315;28;21261;-46
2023/02/17 11:03:32;;;;;;;12.30;11.50;;;12.80;99.90;;;;;;5020910;28;20884;-46
2023/02/17 11:06:00;;;;;;;13.47;12.67;;;12.80;99.90;;;;;;5020966;28;20435;-46
2023/02/17 11:08:31;;;;;;;12.50;11.70;;;12.90;99.90;;;;;;5020759;28;20479;-43
2023/02/17 11:11:02;;;;;;;12.77;12.07;;;12.90;99.90;;;;;;5020665;28;20419;-45
2023/02/17 11:13:33;;;;;;;12.50;11.80;;;12.90;99.90;;;;;;5020503;28;20436;-44
2023/02/17 11:15:59;;;;;;;12.37;11.63;;;12.90;99.90;;;;;;5018902;28;20950;-45
2023/02/17 11:18:31;;;;;;;12.97;12.17;;;13.00;99.90;;;;;;5019727;28;20612;-48
2023/02/17 11:21:09;;;;;;;14.00;13.20;;;13.10;99.90;;;;;;5020553;28;20250;-45
2023/02/17 11:23:39;;;;;;;12.80;12.10;;;12.90;99.90;;;;;;5020341;28;20438;-46
2023/02/17 11:26:15;;;;;;;12.10;11.40;;;12.90;99.90;;;;;;5020548;28;20511;-42
2023/02/17 11:28:41;;;;;;;12.77;12.00;;;12.90;99.90;;;;;;5019939;28;20460;-44
2023/02/17 11:31:20;;;;;;;12.83;12.10;;;12.90;99.90;;;;;;5020237;28;20435;-48
2023/02/17 11:33:46;;;;;;;13.10;12.40;;;12.80;99.90;;;;;;5020546;28;20192;-47
2023/02/17 11:36:25;;;;;;;13.60;12.70;;;12.80;99.90;;;;;;5020327;28;20424;-47
2023/02/17 11:38:51;;;;;;;13.77;13.07;;;12.80;99.90;;;;;;5020218;28;20660;-43
2023/02/17 11:41:17;;;;;;;13.17;12.43;;;12.70;99.90;;;;;;5019958;28;20435;-42
2023/02/17 11:43:59;;;;;;;13.47;12.57;;;12.40;99.90;;;;;;5020312;28;20257;-45
2023/02/17 11:46:48;;;;;;;13.43;12.73;;;12.40;99.90;;;;;;5020375;28;20343;-47
2023/02/17 11:49:39;;;;;;;14.13;13.33;;;12.40;99.90;;;;;;5018347;28;20474;-45
2023/02/17 11:52:24;;;;;;;12.93;12.23;;;12.40;99.90;;;;;;5014680;28;20441;-45
2023/02/17 11:55:01;;;;;;;13.40;12.70;;;12.40;99.90;;;;;;5019818;28;20510;-44
2023/02/17 11:57:57;;;;;;;13.10;12.40;;;12.40;99.90;;;;;;5019963;28;20907;-44
2023/02/17 12:00:35;;;;;;;13.50;12.70;;;12.40;99.90;;;;;;5019747;28;21067;-45
2023/02/17 12:03:28;;;;;;;12.20;11.50;;;12.50;99.90;;;;;;5019836;28;20844;-48
2023/02/17 12:06:00;;;;;;;12.07;11.47;;;12.50;99.90;;;;;;5019790;28;20973;-44
2023/02/17 12:08:37;;;;;;;12.50;11.80;;;12.50;99.90;;;;;;5019257;28;20471;-45
2023/02/17 12:11:20;;;;;;;12.83;11.93;;;12.60;99.90;;;;;;5019811;28;20577;-49
2023/02/17 12:14:03;;;;;;;12.20;11.43;;;12.60;99.90;;;;;;5019630;28;20451;-44
2023/02/17 12:16:31;;;;;;;11.33;10.73;;;12.80;99.90;;;;;;5019246;28;20416;-47
2023/02/17 12:19:15;;;;;;;11.37;10.77;;;12.90;99.90;;;;;;5018837;28;20505;-45
2023/02/17 12:21:56;;;;;;;12.30;11.60;;;13.00;99.90;;;;;;5019733;28;20463;-48
2023/02/17 12:24:43;;;;;;;12.57;11.87;;;13.10;99.90;;;;;;5019465;28;20428;-48
2023/02/17 12:27:15;;;;;;;12.40;11.77;;;13.00;99.90;;;;;;5020097;28;20424;-48
2023/02/17 12:30:22;;;;;;;11.63;10.93;;;13.00;99.90;;;;;;5019605;28;20425;-42
2023/02/17 12:33:06;;;;;;;12.83;12.07;;;13.10;99.90;;;;;;5014573;28;20987;-44
2023/02/17 12:35:59;;;;;;;12.27;11.20;;;13.00;99.90;;;;;;5019451;28;20416;-45
2023/02/17 12:38:29;;;;;;;12.07;11.47;;;13.10;99.90;;;;;;5019462;28;20439;-45
2023/02/17 12:41:10;;;;;;;11.97;11.37;;;13.20;99.90;;;;;;5019385;28;20467;-44
2023/02/17 12:43:44;;;;;;;12.50;11.80;;;13.30;99.90;;;;;;5019109;28;20417;-44
2023/02/17 12:46:35;;;;;;;11.90;11.30;;;13.30;99.90;;;;;;5018664;28;20466;-43
2023/02/17 12:49:17;;;;;;;12.40;11.77;;;13.40;99.90;;;;;;5019092;28;20468;-45
2023/02/17 12:51:49;;;;;;;12.20;11.50;;;13.40;99.90;;;;;;5018434;28;20530;-44